Terminal Aerodrome Forecast
Issued by NWS

Home | Current Version | Previous Version | Graphics & Text | Print | Product List | Glossary On
Versions: 1 2 3 4 5 6 7 8 9 10 11 12 13 14 15 16 17
000
FTUS43 KICT 251137
TAFRSL
TAF
KRSL 251137Z 2512/2612 32024G33KT P6SM SCT070
     FM251500 34026G38KT P6SM SCT050 BKN100
     FM252100 34017G24KT P6SM SCT250
     FM260000 34006KT P6SM SKC
     FM260600 25006KT P6SM SKC=

USA.gov is the U.S. government's official web portal to all federal, state and local government web resources and services.